• Join FlightAware (Why Join?)
  • Login
  • US Flag 
07:32PM EST


 

Airport Tracker/Info


-or-


 

Live Flight TrackerFlight Track Log ✈ DAL1741 ✈ 17-Jun-2014 ✈ KCVG - KSLC

Flight Track Log - Related Links

Times and Time Zones

All times are in EDT time to prevent confusion due to time zone crossing. See the DAL1741 flight status page for this flight to view local times or setup timezone preferences in your user account.

Time Position Orientation Groundspeed Altitude Reporting Facility
EDT Latitude Longitude Course Direction KTS MPH feet Rate Location/Type
08:39AM 39.0500 -84.7000 201° Southwest 182 209 1,400  Level Cincinnati TRACON
08:39AM 39.0500 -84.7167 272° West 181 208 1,900 1,750 Climbing Cincinnati TRACON
08:40AM 39.0500 -84.7833 270° West 227 261 3,500 2,250 Climbing Cincinnati TRACON
08:41AM 39.0000 -84.8333 218° Southwest 272 313 6,400 2,467 Climbing Cincinnati TRACON
08:42AM 38.7289 -84.7992 210° Southwest  Level FlightAware Approximate
08:43AM 38.6307 -84.8684 208° Southwest  Level FlightAware Approximate
08:43AM 38.8606 -84.8858 196° South 278 320 10,900  Level Indianapolis Center
08:44AM 38.5313 -84.9344 201° Southwest  Level FlightAware Approximate
08:44AM 38.7875 -84.9506 215° Southwest 315 362 12,100  Level Indianapolis Center
08:45AM 38.7044 -85.0283 216° Southwest 350 403 14,100 2,032 Climbing Indianapolis Center
08:46AM 38.6022 -85.1208 215° Southwest 380 437 16,300 2,177 Climbing Indianapolis Center
08:47AM 38.5067 -85.2078 215° Southwest 392 451 18,600 1,984 Climbing Indianapolis Center
08:48AM 38.4083 -85.3000 216° Southwest 407 468 20,400 1,935 Climbing Indianapolis Center
08:49AM 38.3139 -85.3875 216° Southwest 413 475 22,600 1,645 Climbing Indianapolis Center
08:50AM 38.2181 -85.4728 215° Southwest 414 476 23,800 1,065 Climbing Indianapolis Center
08:51AM 38.1192 -85.5708 218° Southwest 437 503 24,800 1,016 Climbing Indianapolis Center
08:52AM 38.0936 -85.7261 258° West 452 520 25,900 1,113 Climbing Indianapolis Center
08:53AM 38.0808 -85.8878 264° West 455 524 27,100 1,210 Climbing Indianapolis Center
08:54AM 38.0681 -86.0522 264° West 461 531 28,400 1,536 Climbing Indianapolis Center
08:55AM 38.0539 -86.2456 265° West 462 532 30,300 1,536 Climbing Indianapolis Center
08:56AM 38.0408 -86.4033 264° West 454 522 31,600 1,161 Climbing Indianapolis Center
08:57AM 38.0294 -86.5622 265° West 451 519 32,700 1,065 Climbing Indianapolis Center
08:58AM 38.0164 -86.7183 264° West 448 516 33,800 1,210 Climbing Indianapolis Center
08:59AM 38.0044 -86.8728 264° West 442 509 35,200 1,016 Climbing Indianapolis Center
09:01AM 37.9917 -87.0244 264° West 432 497 35,900 339 Climbing Indianapolis Center
09:02AM 37.9786 -87.1775 264° West 432 497 35,900  Level Indianapolis Center
09:03AM 37.9650 -87.3303 264° West 432 497 35,900  Level Indianapolis Center
09:04AM 37.9525 -87.4825 264° West 432 497 35,900  Level Indianapolis Center
09:05AM 37.9375 -87.6628 264° West 431 496 35,900  Level Indianapolis Center
09:06AM 37.9231 -87.8128 263° West 429 494 35,900  Level Indianapolis Center
09:07AM 37.9092 -87.9653 263° West 429 494 35,900  Level Indianapolis Center
09:08AM 37.8944 -88.1164 263° West 430 495 35,900  Level Indianapolis Center
09:09AM 37.8797 -88.2683 263° West 430 495 35,900  Level Indianapolis Center
09:10AM 37.8661 -88.4211 264° West 432 497 35,900  Level Kansas City Center
09:11AM 37.8506 -88.5733 263° West 434 499 35,900  Level Kansas City Center
09:12AM 37.8364 -88.7119 263° West 434 499 35,900  Level Kansas City Center
09:13AM 37.8214 -88.8642 263° West 434 499 35,900  Level Kansas City Center
09:14AM 37.8058 -89.0189 263° West 434 499 35,900  Level Kansas City Center
09:15AM 37.7875 -89.2036 263° West 436 502 35,900  Level Kansas City Center
09:16AM 37.7700 -89.3547 262° West 436 502 35,900  Level Kansas City Center
09:17AM 37.7531 -89.5047 262° West 436 502 35,900  Level Kansas City Center
09:18AM 37.7367 -89.6575 262° West 437 503 35,900  Level Kansas City Center
09:19AM 37.7203 -89.8083 262° West 436 502 35,900  Level Kansas City Center
09:20AM 37.7036 -89.9594 262° West 436 502 35,900  Level Kansas City Center
09:21AM 37.6831 -90.1411 262° West 436 502 35,900  Level Kansas City Center
09:22AM 37.6828 -90.2939 270° West 439 505 35,900  Level Kansas City Center
09:23AM 37.7061 -90.4403 281° West 435 501 35,900  Level Kansas City Center
09:24AM 37.7289 -90.5889 281° West 430 495 35,900  Level Kansas City Center
09:25AM 37.7522 -90.7364 281° West 430 495 35,900  Level Kansas City Center
09:26AM 37.7742 -90.8850 281° West 430 495 35,900  Level Kansas City Center
09:27AM 37.7972 -91.0322 281° West 429 494 35,900  Level Kansas City Center
09:28AM 37.8217 -91.1972 281° West 428 493 35,900  Level Kansas City Center
09:29AM 37.8431 -91.3433 281° West 427 491 35,900  Level Kansas City Center
09:30AM 37.8644 -91.4892 281° West 426 490 35,900  Level Kansas City Center
09:31AM 37.8906 -91.6647 281° West 425 489 35,900  Level Kansas City Center
09:32AM 37.9125 -91.8092 281° West 421 484 35,900  Level Kansas City Center
09:33AM 37.9342 -91.9544 281° West 420 483 35,900  Level Kansas City Center
09:35AM 37.9564 -92.1097 280° West 419 482 35,900  Level Kansas City Center
09:36AM 37.9772 -92.2556 280° West 420 483 35,900  Level Kansas City Center
09:37AM 37.9972 -92.3992 280° West 420 483 35,900  Level Kansas City Center
09:38AM 38.0194 -92.5444 281° West 420 483 35,900  Level Kansas City Center
09:39AM 38.0381 -92.6861 280° West 413 475 35,900  Level Kansas City Center
09:40AM 38.0581 -92.8350 280° West 412 474 35,900  Level Kansas City Center
09:41AM 38.0769 -92.9772 280° West 412 474 35,900  Level Kansas City Center
09:42AM 38.1011 -93.1478 280° West 411 473 35,900  Level Kansas City Center
09:43AM 38.1197 -93.2903 279° West 410 472 35,900  Level Kansas City Center
09:44AM 38.1381 -93.4314 279° West 408 470 35,900  Level Kansas City Center
09:45AM 38.1569 -93.5736 280° West 408 470 35,900  Level Kansas City Center
09:46AM 38.1747 -93.7156 279° West 407 468 35,900  Level Kansas City Center
09:47AM 38.1928 -93.8572 279° West 406 467 35,900  Level Kansas City Center
09:48AM 38.2133 -94.0253 279° West 406 467 35,900  Level Kansas City Center
09:49AM 38.2311 -94.1658 279° West 406 467 35,900  Level Kansas City Center
09:50AM 38.2486 -94.3047 279° West 403 464 35,900  Level Kansas City Center
09:51AM 38.2650 -94.4442 279° West 403 464 35,900  Level Kansas City Center
09:52AM 38.2961 -94.5953 285° West 403 464 35,900  Level Kansas City Center
09:53AM 38.3269 -94.7333 286° West 405 466 35,900  Level Kansas City Center
09:54AM 38.3597 -94.8833 286° West 408 470 35,900  Level Kansas City Center
09:55AM 38.3900 -95.0214 286° West 407 468 35,900  Level Kansas City Center
09:56AM 38.4219 -95.1697 285° West 404 465 35,900  Level Kansas City Center
09:57AM 38.4522 -95.3083 286° West 403 464 35,900  Level Kansas City Center
09:58AM 38.4814 -95.4442 285° West 399 459 35,900  Level Kansas City Center
09:59AM 38.5125 -95.5869 286° West 400 460 35,900  Level Kansas City Center
10:00AM 38.5417 -95.7283 285° West 399 459 35,900  Level Kansas City Center
10:01AM 38.5667 -95.8458 285° West 399 459 35,900  Level Kansas City Center
10:02AM 38.6014 -96.0097 285° West 399 459 35,900  Level Kansas City Center
10:03AM 38.6314 -96.1564 285° West 399 459 35,900  Level Kansas City Center
10:04AM 38.6608 -96.2989 285° West 399 459 35,900  Level Kansas City Center
10:06AM 38.6878 -96.4322 285° West 399 459 35,900  Level Kansas City Center
10:07AM 38.7175 -96.5772 285° West 402 463 35,900  Level Kansas City Center
10:08AM 38.7469 -96.7250 284° West 404 465 35,900  Level Kansas City Center
10:09AM 38.7756 -96.8656 285° West 406 467 35,900  Level Kansas City Center
10:10AM 38.8044 -97.0075 285° West 410 472 35,900  Level Kansas City Center
10:11AM 38.8328 -97.1503 284° West 413 475 35,900  Level Kansas City Center
10:12AM 38.8614 -97.2928 285° West 413 475 35,900  Level Kansas City Center
10:13AM 38.8958 -97.4656 284° West 415 478 35,900  Level Kansas City Center
10:14AM 38.9239 -97.6103 284° West 419 482 35,900  Level Kansas City Center
10:15AM 38.9447 -97.7586 280° West 422 486 35,900  Level Kansas City Center
10:16AM 38.9658 -97.9072 280° West 424 488 35,900  Level Kansas City Center
10:17AM 38.9861 -98.0539 280° West 423 487 35,900  Level Kansas City Center
10:18AM 38.9858 -98.2058 270° West 432 497 35,900  Level Kansas City Center
10:19AM 38.9700 -98.3817 263° West 419 482 35,900  Level Kansas City Center
10:20AM 38.9575 -98.5300 264° West 419 482 35,900  Level Kansas City Center
10:21AM 38.9450 -98.6783 264° West 419 482 35,900  Level Kansas City Center
10:22AM 38.9344 -98.8256 265° West 419 482 35,900  Level Kansas City Center
10:23AM 38.9606 -98.9717 283° West 423 487 35,900  Level Kansas City Center
10:24AM 38.9886 -99.1481 282° West 422 486 35,900  Level Kansas City Center
10:25AM 39.0125 -99.2969 282° West 423 487 35,900  Level Kansas City Center
10:26AM 39.0356 -99.4447 281° West 423 487 35,900  Level Kansas City Center
10:27AM 39.0603 -99.5975 282° West 423 487 35,900  Level Kansas City Center
10:28AM 39.0858 -99.7614 281° West 423 487 35,900  Level Kansas City Center
10:29AM 39.1058 -99.8950 281° West 412 474 35,900  Level Denver Center
10:30AM 39.1267 -100.0306 281° West 412 474 35,900  Level Denver Center
10:31AM 39.1528 -100.1933 282° West 412 474 35,900  Level Denver Center
10:32AM 39.1731 -100.3339 281° West 412 474 35,900  Level Denver Center
10:33AM 39.1981 -100.4975 281° West 413 475 35,900  Level Denver Center
10:34AM 39.2189 -100.6386 281° West 415 478 35,900  Level Denver Center
10:35AM 39.2439 -100.8031 281° West 417 480 35,900  Level Denver Center
10:36AM 39.2647 -100.9456 281° West 418 481 35,900  Level Denver Center
10:38AM 39.2844 -101.0867 280° West 418 481 35,900  Level Denver Center
10:39AM 39.3092 -101.2511 281° West 418 481 35,900  Level Denver Center
10:40AM 39.3292 -101.3922 280° West 418 481 35,900  Level Denver Center
10:41AM 39.3522 -101.5561 280° West 417 480 35,900  Level Denver Center
10:42AM 39.3722 -101.6983 280° West 418 481 35,900  Level Denver Center
10:43AM 39.3947 -101.8614 280° West 416 479 35,900  Level Denver Center
10:44AM 39.4139 -102.0000 280° West 411 473 35,900  Level Denver Center
10:45AM 39.4367 -102.1628 280° West 411 473 35,900  Level Denver Center
10:46AM 39.4547 -102.3039 279° West 411 473 35,900  Level Denver Center
10:47AM 39.4753 -102.4544 280° West 412 474 35,900  Level Denver Center
10:48AM 39.4947 -102.6014 280° West 412 474 35,900  Level Denver Center
10:49AM 39.5147 -102.7503 280° West 418 481 35,900  Level Denver Center
10:50AM 39.5367 -102.9317 279° West 422 486 35,900  Level Denver Center
10:51AM 39.5572 -103.0831 280° West 426 490 35,900  Level Denver Center
10:52AM 39.5753 -103.2333 279° West 426 490 35,900  Level Denver Center
10:53AM 39.5936 -103.3825 279° West 421 484 35,900  Level Denver Center
10:54AM 39.6133 -103.5328 280° West 422 486 35,900  Level Denver Center
10:55AM 39.6306 -103.6819 279° West 422 486 35,900  Level Denver Center
10:56AM 39.6531 -103.8614 279° West 422 486 35,900  Level Denver Center
10:57AM 39.6706 -104.0106 279° West 421 484 35,900  Level Denver Center
10:58AM 39.6886 -104.1603 279° West 421 484 35,900  Level Denver Center
10:59AM 39.7058 -104.3075 279° West 420 483 35,900  Level Denver Center
11:00AM 39.7233 -104.4553 279° West 420 483 35,900  Level Denver Center
11:01AM 39.7428 -104.6336 278° West 421 484 35,900  Level Denver Center
11:02AM 39.7600 -104.7800 279° West 421 484 35,900  Level Denver Center
11:03AM 39.7758 -104.9292 278° West 421 484 35,900  Level Denver Center
11:04AM 39.7925 -105.0761 278° West 420 483 35,900  Level Denver Center
11:05AM 39.8114 -105.2475 278° West 405 466 35,900  Level Denver Center
11:06AM 39.8258 -105.3900 278° West 404 465 35,900  Level Denver Center
11:08AM 39.8403 -105.5331 278° West 400 460 35,900  Level Denver Center
11:09AM 39.8564 -105.6772 278° West 401 461 35,900  Level Denver Center
11:10AM 39.8708 -105.8197 278° West 401 461 35,900  Level Denver Center
11:11AM 39.8856 -105.9622 278° West 400 460 35,900  Level Denver Center
11:12AM 39.9025 -106.1306 278° West 396 456 35,900  Level Denver Center
11:13AM 39.9164 -106.2689 278° West 392 451 35,900  Level Denver Center
11:14AM 39.9311 -106.4086 278° West 391 450 35,900  Level Denver Center
11:15AM 39.9442 -106.5331 278° West 387 445 35,900  Level Denver Center
11:16AM 39.9564 -106.6869 276° West 385 443 35,900 48 Level Denver Center
11:17AM 39.9722 -106.8417 278° West 385 443 36,000  Climbing Denver Center
11:18AM 39.9847 -106.9761 277° West 388 447 35,900 -48 Descending Denver Center
11:19AM 39.9986 -107.1272 277° West 380 437 35,900  Level Denver Center
11:20AM 40.0111 -107.2581 277° West 380 437 35,900  Level Denver Center
11:21AM 40.0244 -107.4083 277° West 379 436 35,900  Level Denver Center
11:22AM 40.0356 -107.5383 276° West 378 435 35,900  Level Denver Center
11:23AM 40.0492 -107.6919 277° West 379 436 35,900  Level Denver Center
11:24AM 40.0600 -107.8219 276° West 379 436 35,900  Level Denver Center
11:25AM 40.0708 -107.9722 275° West 378 435 35,900  Level Denver Center
11:26AM 40.0772 -108.1011 274° West 377 434 35,900  Level Denver Center
11:27AM 40.0836 -108.2500 273° West 374 430 35,900  Level Denver Center
11:28AM 40.0878 -108.3783 272° West 372 428 35,900  Level Denver Center
11:29AM 40.0942 -108.5281 273° West 370 426 35,900  Level Denver Center
11:30AM 40.1003 -108.6567 274° West 371 427 35,900  Level Denver Center
11:31AM 40.1031 -108.7394 273° West 372 428 35,900  Level Salt Lake Center
11:32AM 40.1078 -108.8658 273° West 371 427 35,900  Level Salt Lake Center
11:33AM 40.1125 -109.0108 272° West 365 420 35,900  Level Salt Lake Center
11:34AM 40.1181 -109.1364 273° West 365 420 35,900  Level Salt Lake Center
11:35AM 40.1228 -109.2831 272° West 364 419 35,900 -145 Level Salt Lake Center
11:36AM 40.1275 -109.4081 273° West 364 419 35,600 -677 Descending Salt Lake Center
11:37AM 40.1311 -109.5517 272° West 359 413 34,500 -1,016 Descending Salt Lake Center
11:38AM 40.1350 -109.6722 272° West 350 403 33,500 -1,065 Descending Salt Lake Center
11:39AM 40.1394 -109.8108 272° West 347 399 32,300 -1,016 Descending Salt Lake Center
11:40AM 40.1431 -109.9267 272° West 338 389 31,400 -968 Descending Salt Lake Center
11:41AM 40.1464 -110.0625 272° West 336 387 30,300 -677 Descending Salt Lake Center
11:42AM 40.1494 -110.1736 272° West 326 375 30,000 -194 Descending Salt Lake Center
11:43AM 40.1472 -110.3036 269° West 323 372 29,900  Descending Salt Lake Center
11:44AM 40.1464 -110.4142 269° West 323 372 30,000  Climbing Salt Lake Center
11:45AM 40.1456 -110.5436 270° West 319 367 29,900 -435 Descending Salt Lake Center
11:46AM 40.1442 -110.6647 269° West 347 399 29,100 -1,355 Descending Salt Lake Center
11:47AM 40.1414 -110.8106 269° West 360 414 27,100 -2,032 Descending Salt Lake Center
11:48AM 40.1397 -110.9422 269° West 354 407 24,900 -2,016 Descending Salt Lake Center
11:49AM 40.1372 -111.0658 269° West 347 399 22,900 -1,920 Descending Salt Lake Center
11:51AM 40.1361 -111.1869 269° West 338 389 20,900 -1,645 Descending Salt Lake Center
11:52AM 40.1356 -111.3006 270° West 321 369 19,500 -1,403 Descending Salt Lake Center
11:53AM 40.1328 -111.4050 268° West 291 335 18,000 -1,664 Descending Salt Lake Center
11:54AM 40.1278 -111.5258 267° West 277 319 16,200 -1,212 Descending Salt Lake Center
11:54AM 40.1411 -111.5917 285° West 286 329 16,000 -269 Descending Salt Lake Center
11:55AM 40.1586 -111.6247 305° West 289 333 15,900 -295 Descending Salt Lake Center
11:55AM 40.1750 -111.6839 290° West 279 321 15,700 -774 Descending Salt Lake Center
11:56AM 40.1975 -111.7100 318° Northwest 276 318 15,100 -1,309 Descending Salt Lake Center
11:56AM 40.2231 -111.7519 309° West 283 326 14,500 -1,161 Descending Salt Lake Center
11:57AM 40.2544 -111.7853 321° Northwest 288 331 13,900 -492 Descending Salt Lake Center
11:57AM 40.2817 -111.8303 308° West 283 326 14,000  Climbing Salt Lake Center
11:58AM 40.3119 -111.8536 330° Northwest 282 325 13,900 -590 Descending Salt Lake Center
11:58AM 40.3531 -111.8850 330° Northwest 305 351 13,400 -1,645 Descending Salt Lake Center
11:59AM 40.3881 -111.9000 342° North 298 343 12,200 -2,400 Descending Salt Lake Center
11:59AM 40.4300 -111.9264 334° Northwest 296 341 11,000 -2,032 Descending Salt Lake Center
12:00PM 40.4672 -111.9269 359° North 294 338 10,100 -1,475 Descending Salt Lake Center
12:00PM 40.5075 -111.9367 350° North 275 316 9,500 -1,452 Descending Salt Lake Center
12:01PM 40.5503 -111.9378 359° North 239 275 8,600 -1,279 Descending Salt Lake Center
12:01PM 40.5711 -111.9433 349° North 219 252 8,200 -1,065 Descending Salt Lake Center
12:02PM 40.6064 -111.9444 359° North 200 230 7,500 -1,082 Descending Salt Lake Center
12:02PM 40.6244 -111.9508 345° North 187 215 7,100 -968 Descending Salt Lake Center
12:03PM 40.6606 -111.9500 North 196 226 6,500 -1,082 Descending Salt Lake Center
12:03PM 40.6817 -111.9567 347° North 189 217 6,000 -968 Descending Salt Lake Center
12:04PM 40.7128 -111.9558 North 190 219 5,500 -885 Descending Salt Lake Center
12:04PM 40.7317 -111.9594 352° North 180 207 5,100 -871 Descending Salt Lake Center
12:05PM 40.7564 -111.9608 358° North 161 185 4,600 -519 Descending Salt Lake Center
12:06PM 40.7903 -111.9614 359° North 135 155 4,200 -387 Descending Salt Lake Center